Time,TemperatureF,DewpointF,PressureIn,WindDirection,WindDirectionDegrees,WindSpeedMPH,WindSpeedGustMPH,Humidity,HourlyPrecipIn,Conditions,Clouds,dailyrainin,SoftwareType,DateUTC
2013-02-03 00:01:00,29.0,7.0,-100.00,ESE,112,3.0,6.0,39,0.00,,,-99.99,,2013-02-03 07:01:00,
2013-02-03 00:11:00,34.0,5.0,-100.00,SSE,155,6.0,14.0,29,0.00,,,-99.99,,2013-02-03 07:11:00,
2013-02-03 00:21:00,31.0,5.0,-100.00,ESE,116,3.0,10.0,33,0.00,,,-99.99,,2013-02-03 07:21:00,
2013-02-03 00:31:00,32.0,5.0,-100.00,WNW,282,4.0,9.0,31,0.00,,,-99.99,,2013-02-03 07:31:00,
2013-02-03 00:41:00,33.0,5.0,-100.00,SSW,192,3.0,7.0,31,0.00,,,-99.99,,2013-02-03 07:41:00,
2013-02-03 00:52:00,30.0,6.0,-100.00,East,93,3.0,9.0,36,0.00,,,-99.99,,2013-02-03 07:52:00,
2013-02-03 01:01:00,29.0,6.0,-100.00,NNE,18,3.0,8.0,37,0.00,,,-99.99,,2013-02-03 08:01:00,
2013-02-03 01:11:00,28.0,6.0,-100.00,NNW,332,2.0,5.0,38,0.00,,,-99.99,,2013-02-03 08:11:00,
2013-02-03 01:22:00,32.0,6.0,-100.00,ESE,116,5.0,11.0,32,0.00,,,-99.99,,2013-02-03 08:22:00,
2013-02-03 01:32:00,33.0,5.0,-100.00,South,175,9.0,22.0,30,0.00,,,-99.99,,2013-02-03 08:32:00,
2013-02-03 01:41:00,31.0,6.0,-100.00,South,189,7.0,13.0,34,0.00,,,-99.99,,2013-02-03 08:41:00,
2013-02-03 01:52:00,27.0,6.0,-100.00,North,359,6.0,10.0,41,0.00,,,-99.99,,2013-02-03 08:52:00,
2013-02-03 02:02:00,26.0,7.0,-100.00,North,354,3.0,8.0,43,0.00,,,-99.99,,2013-02-03 09:02:00,
2013-02-03 02:11:00,25.0,7.0,-100.00,NE,45,2.0,5.0,45,0.00,,,-99.99,,2013-02-03 09:11:00,
2013-02-03 02:21:00,24.0,7.0,-100.00,NE,37,4.0,8.0,47,0.00,,,-99.99,,2013-02-03 09:21:00,
2013-02-03 02:31:00,26.0,7.0,-100.00,NE,49,2.0,7.0,44,0.00,,,-99.99,,2013-02-03 09:31:00,
2013-02-03 02:41:00,27.0,7.0,-100.00,ESE,106,1.0,6.0,41,0.00,,,-99.99,,2013-02-03 09:41:00,
2013-02-03 02:51:00,26.0,7.0,-100.00,ENE,62,4.0,11.0,45,0.00,,,-99.99,,2013-02-03 09:51:00,
2013-02-03 03:01:00,24.0,8.0,-100.00,North,357,7.0,12.0,50,0.00,,,-99.99,,2013-02-03 10:01:00,
2013-02-03 03:11:00,26.0,8.0,-100.00,NNE,21,9.0,14.0,46,0.00,,,-99.99,,2013-02-03 10:11:00,
2013-02-03 03:21:00,22.0,8.0,-100.00,North,4,9.0,12.0,55,0.00,,,-99.99,,2013-02-03 10:21:00,
2013-02-03 03:31:00,25.0,8.0,-100.00,North,7,8.0,14.0,47,0.00,,,-99.99,,2013-02-03 10:31:00,
2013-02-03 03:42:00,30.0,5.0,-100.00,East,97,4.0,9.0,34,0.00,,,-99.99,,2013-02-03 10:42:00,
2013-02-03 03:52:00,30.0,4.0,-100.00,ESE,106,2.0,10.0,32,0.00,,,-99.99,,2013-02-03 10:52:00,
2013-02-03 04:02:00,32.0,4.0,-100.00,SSW,198,2.0,7.0,29,0.00,,,-99.99,,2013-02-03 11:02:00,
2013-02-03 04:11:00,29.0,5.0,-100.00,WSW,257,2.0,9.0,35,0.00,,,-99.99,,2013-02-03 11:11:00,
2013-02-03 04:22:00,28.0,4.0,-100.00,ENE,65,2.0,6.0,36,0.00,,,-99.99,,2013-02-03 11:22:00,
2013-02-03 04:32:00,28.0,1.0,-100.00,WNW,299,2.0,11.0,31,0.00,,,-99.99,,2013-02-03 11:32:00,
2013-02-03 04:41:00,24.0,6.0,-100.00,NNW,328,5.0,12.0,47,0.00,,,-99.99,,2013-02-03 11:41:00,
2013-02-03 04:52:00,23.0,6.0,-100.00,North,4,7.0,12.0,48,0.00,,,-99.99,,2013-02-03 11:52:00,
2013-02-03 05:02:00,24.0,7.0,-100.00,North,11,5.0,9.0,48,0.00,,,-99.99,,2013-02-03 12:02:00,
2013-02-03 05:11:00,26.0,5.0,-100.00,NNE,20,9.0,17.0,41,0.00,,,-99.99,,2013-02-03 12:11:00,
2013-02-03 05:22:00,22.0,7.0,-100.00,North,3,6.0,12.0,52,0.00,,,-99.99,,2013-02-03 12:22:00,
2013-02-03 05:32:00,23.0,7.0,-100.00,North,7,13.0,17.0,50,0.00,,,-99.99,,2013-02-03 12:32:00,
2013-02-03 05:42:00,26.0,4.0,-100.00,North,1,11.0,17.0,39,0.00,,,-99.99,,2013-02-03 12:42:00,
2013-02-03 05:52:00,23.0,7.0,-100.00,North,7,12.0,18.0,51,0.00,,,-99.99,,2013-02-03 12:52:00,
2013-02-03 06:03:00,25.0,6.0,-100.00,ENE,58,9.0,17.0,45,0.00,,,-99.99,,2013-02-03 13:03:00,
2013-02-03 06:11:00,34.0,-2.0,-100.00,SSE,157,4.0,14.0,21,0.00,,,-99.99,,2013-02-03 13:11:00,
2013-02-03 06:21:00,26.0,4.0,-100.00,NW,306,4.0,10.0,39,0.00,,,-99.99,,2013-02-03 13:21:00,
2013-02-03 06:32:00,23.0,6.0,-100.00,ESE,103,4.0,7.0,47,0.00,,,-99.99,,2013-02-03 13:32:00,
2013-02-03 06:42:00,24.0,6.0,-100.00,East,86,4.0,7.0,47,0.00,,,-99.99,,2013-02-03 13:42:00,
2013-02-03 06:52:00,23.0,6.0,-100.00,ESE,104,6.0,9.0,47,0.00,,,-99.99,,2013-02-03 13:52:00,
2013-02-03 07:02:00,23.0,6.0,-100.00,East,80,5.0,9.0,49,0.00,,,-99.99,,2013-02-03 14:02:00,
2013-02-03 07:11:00,23.0,7.0,-100.00,East,83,4.0,9.0,49,0.00,,,-99.99,,2013-02-03 14:11:00,
2013-02-03 07:21:00,22.0,7.0,-100.00,East,82,4.0,7.0,52,0.00,,,-99.99,,2013-02-03 14:21:00,
2013-02-03 07:32:00,22.0,7.0,-100.00,ENE,61,6.0,9.0,52,0.00,,,-99.99,,2013-02-03 14:32:00,
2013-02-03 07:42:00,22.0,7.0,-100.00,East,100,6.0,9.0,52,0.00,,,-99.99,,2013-02-03 14:42:00,
2013-02-03 07:52:00,21.0,7.0,-100.00,ENE,78,4.0,6.0,54,0.00,,,-99.99,,2013-02-03 14:52:00,
2013-02-03 08:03:00,21.0,8.0,-100.00,ENE,68,2.0,6.0,55,0.00,,,-99.99,,2013-02-03 15:03:00,
2013-02-03 08:11:00,21.0,7.0,-100.00,ESE,113,1.0,4.0,54,0.00,,,-99.99,,2013-02-03 15:11:00,
2013-02-03 08:22:00,22.0,7.0,-100.00,East,92,2.0,6.0,53,0.00,,,-99.99,,2013-02-03 15:22:00,
2013-02-03 08:32:00,22.0,7.0,-100.00,South,172,1.0,3.0,53,0.00,,,-99.99,,2013-02-03 15:32:00,
2013-02-03 08:41:00,23.0,7.0,-100.00,South,184,2.0,6.0,49,0.00,,,-99.99,,2013-02-03 15:41:00,
2013-02-03 08:51:00,24.0,6.0,-100.00,East,100,2.0,6.0,45,0.00,,,-99.99,,2013-02-03 15:51:00,
2013-02-03 09:02:00,25.0,6.0,-100.00,East,79,3.0,7.0,43,0.00,,,-99.99,,2013-02-03 16:02:00,
2013-02-03 09:11:00,25.0,6.0,-100.00,ENE,59,4.0,7.0,43,0.00,,,-99.99,,2013-02-03 16:11:00,
2013-02-03 09:22:00,26.0,7.0,-100.00,East,96,3.0,6.0,43,0.00,,,-99.99,,2013-02-03 16:22:00,
2013-02-03 09:32:00,28.0,8.0,-100.00,East,99,2.0,6.0,43,0.00,,,-99.99,,2013-02-03 16:32:00,
2013-02-03 09:41:00,30.0,7.0,-100.00,East,93,2.0,5.0,36,0.00,,,-99.99,,2013-02-03 16:41:00,
2013-02-03 09:52:00,30.0,7.0,-100.00,East,83,4.0,6.0,37,0.00,,,-99.99,,2013-02-03 16:52:00,
2013-02-03 10:02:00,31.0,4.0,-100.00,East,85,3.0,6.0,31,0.00,,,-99.99,,2013-02-03 17:02:00,
2013-02-03 10:11:00,31.0,4.0,-100.00,ENE,68,4.0,6.0,31,0.00,,,-99.99,,2013-02-03 17:11:00,
2013-02-03 10:21:00,31.0,6.0,-100.00,East,82,4.0,6.0,33,0.00,,,-99.99,,2013-02-03 17:21:00,
2013-02-03 10:32:00,32.0,5.0,-100.00,ENE,61,4.0,7.0,31,0.00,,,-99.99,,2013-02-03 17:32:00,
2013-02-03 10:42:00,31.0,9.0,-100.00,NE,56,5.0,7.0,40,0.00,,,-99.99,,2013-02-03 17:42:00,
2013-02-03 10:52:00,32.0,8.0,-100.00,ENE,69,4.0,6.0,36,0.00,,,-99.99,,2013-02-03 17:52:00,
2013-02-03 11:03:00,33.0,7.0,-100.00,East,82,4.0,8.0,33,0.00,,,-99.99,,2013-02-03 18:03:00,
2013-02-03 11:11:00,33.0,7.0,-100.00,ENE,68,6.0,10.0,33,0.00,,,-99.99,,2013-02-03 18:11:00,
2013-02-03 11:23:00,33.0,7.0,-100.00,NE,47,6.0,8.0,33,0.00,,,-99.99,,2013-02-03 18:23:00,
2013-02-03 11:32:00,34.0,8.0,-100.00,ENE,72,5.0,7.0,33,0.00,,,-99.99,,2013-02-03 18:32:00,
2013-02-03 11:42:00,34.0,7.0,-100.00,ENE,69,5.0,8.0,31,0.00,,,-99.99,,2013-02-03 18:42:00,
2013-02-03 11:51:00,35.0,7.0,-100.00,NE,47,5.0,8.0,30,0.00,,,-99.99,,2013-02-03 18:51:00,
2013-02-03 12:02:00,36.0,7.0,-100.00,NE,54,6.0,9.0,30,0.00,,,-99.99,,2013-02-03 19:02:00,
2013-02-03 12:11:00,38.0,5.0,-100.00,ENE,65,4.0,9.0,25,0.00,,,-99.99,,2013-02-03 19:11:00,
2013-02-03 12:22:00,37.0,6.0,-100.00,ENE,75,4.0,7.0,26,0.00,,,-99.99,,2013-02-03 19:22:00,
2013-02-03 12:32:00,38.0,6.0,-100.00,SE,128,2.0,6.0,26,0.00,,,-99.99,,2013-02-03 19:32:00,
2013-02-03 12:41:00,39.0,0.0,-100.00,SSE,167,4.0,13.0,19,0.00,,,-99.99,,2013-02-03 19:41:00,
2013-02-03 12:51:00,40.0,-1.0,-100.00,WNW,282,11.0,19.0,17,0.00,,,-99.99,,2013-02-03 19:51:00,
2013-02-03 13:01:00,40.0,1.0,-100.00,WSW,239,2.0,7.0,18,0.00,,,-99.99,,2013-02-03 20:01:00,
2013-02-03 13:12:00,40.0,1.0,-100.00,SSW,192,4.0,12.0,19,0.00,,,-99.99,,2013-02-03 20:12:00,
2013-02-03 13:21:00,40.0,1.0,-100.00,SW,229,7.0,25.0,19,0.00,,,-99.99,,2013-02-03 20:21:00,
2013-02-03 13:32:00,41.0,0.0,-100.00,SSW,209,5.0,11.0,18,0.00,,,-99.99,,2013-02-03 20:32:00,
2013-02-03 13:42:00,40.0,2.0,-100.00,WSW,251,6.0,12.0,20,0.00,,,-99.99,,2013-02-03 20:42:00,
2013-02-03 13:52:00,40.0,1.0,-100.00,SW,234,7.0,14.0,19,0.00,,,-99.99,,2013-02-03 20:52:00,
2013-02-03 14:03:00,40.0,0.0,-100.00,SSW,193,4.0,12.0,18,0.00,,,-99.99,,2013-02-03 21:03:00,
2013-02-03 14:11:00,40.0,2.0,-100.00,West,267,5.0,9.0,19,0.00,,,-99.99,,2013-02-03 21:11:00,
2013-02-03 14:21:00,40.0,0.0,-100.00,SSW,213,7.0,17.0,18,0.00,,,-99.99,,2013-02-03 21:21:00,
2013-02-03 14:32:00,40.0,1.0,-100.00,West,275,5.0,16.0,19,0.00,,,-99.99,,2013-02-03 21:32:00,
2013-02-03 14:42:00,40.0,0.0,-100.00,SW,223,9.0,19.0,18,0.00,,,-99.99,,2013-02-03 21:42:00,
2013-02-03 14:51:00,41.0,0.0,-100.00,WSW,257,7.0,18.0,18,0.00,,,-99.99,,2013-02-03 21:51:00,
2013-02-03 15:01:00,41.0,1.0,-100.00,South,174,6.0,12.0,18,0.00,,,-99.99,,2013-02-03 22:01:00,
2013-02-03 15:11:00,40.0,2.0,-100.00,WSW,241,6.0,15.0,19,0.00,,,-99.99,,2013-02-03 22:11:00,
2013-02-03 15:21:00,41.0,3.0,-100.00,South,182,6.0,16.0,21,0.00,,,-99.99,,2013-02-03 22:21:00,
2013-02-03 15:32:00,40.0,2.0,-100.00,SSW,196,11.0,26.0,20,0.00,,,-99.99,,2013-02-03 22:32:00,
2013-02-03 15:41:00,40.0,1.0,-100.00,South,188,9.0,17.0,20,0.00,,,-99.99,,2013-02-03 22:41:00,
2013-02-03 15:51:00,40.0,1.0,-100.00,SSW,209,8.0,21.0,20,0.00,,,-99.99,,2013-02-03 22:51:00,
2013-02-03 16:01:00,39.0,1.0,-100.00,SW,226,14.0,26.0,20,0.00,,,-99.99,,2013-02-03 23:01:00,
2013-02-03 16:12:00,39.0,0.0,-100.00,WSW,240,14.0,26.0,19,0.00,,,-99.99,,2013-02-03 23:12:00,
2013-02-03 16:22:00,38.0,2.0,-100.00,WSW,250,17.0,32.0,21,0.00,,,-99.99,,2013-02-03 23:22:00,
2013-02-03 16:32:00,38.0,2.0,-100.00,WSW,253,17.0,32.0,22,0.00,,,-99.99,,2013-02-03 23:32:00,
2013-02-03 16:41:00,37.0,2.0,-100.00,WSW,251,21.0,35.0,22,0.00,,,-99.99,,2013-02-03 23:41:00,
2013-02-03 16:52:00,37.0,3.0,-100.00,WSW,246,16.0,27.0,23,0.00,,,-99.99,,2013-02-03 23:52:00,
2013-02-03 17:01:00,36.0,2.0,-100.00,WSW,248,16.0,27.0,23,0.00,,,-99.99,,2013-02-04 00:01:00,
2013-02-03 17:11:00,36.0,1.0,-100.00,WSW,246,16.0,26.0,23,0.00,,,-99.99,,2013-02-04 00:11:00,
2013-02-03 17:22:00,35.0,1.0,-100.00,WSW,248,15.0,30.0,23,0.00,,,-99.99,,2013-02-04 00:22:00,
2013-02-03 17:32:00,35.0,1.0,-100.00,WSW,250,13.0,23.0,24,0.00,,,-99.99,,2013-02-04 00:32:00,
2013-02-03 17:41:00,34.0,1.0,-100.00,WSW,251,13.0,28.0,24,0.00,,,-99.99,,2013-02-04 00:41:00,
2013-02-03 17:51:00,34.0,1.0,-100.00,WSW,251,14.0,23.0,24,0.00,,,-99.99,,2013-02-04 00:51:00,
2013-02-03 18:01:00,34.0,1.0,-100.00,WSW,248,14.0,24.0,24,0.00,,,-99.99,,2013-02-04 01:01:00,
2013-02-03 18:11:00,34.0,1.0,-100.00,WSW,243,18.0,34.0,25,0.00,,,-99.99,,2013-02-04 01:11:00,
2013-02-03 18:21:00,33.0,2.0,-100.00,WSW,243,18.0,30.0,25,0.00,,,-99.99,,2013-02-04 01:21:00,
2013-02-03 18:31:00,33.0,2.0,-100.00,WSW,240,20.0,35.0,26,0.00,,,-99.99,,2013-02-04 01:31:00,
2013-02-03 18:41:00,33.0,2.0,-100.00,SW,230,24.0,35.0,27,0.00,,,-99.99,,2013-02-04 01:41:00,
2013-02-03 18:52:00,32.0,2.0,-100.00,SW,232,24.0,34.0,28,0.00,,,-99.99,,2013-02-04 01:52:00,
2013-02-03 19:02:00,32.0,3.0,-100.00,WSW,237,20.0,32.0,28,0.00,,,-99.99,,2013-02-04 02:02:00,
2013-02-03 19:11:00,32.0,3.0,-100.00,WSW,240,18.0,29.0,28,0.00,,,-99.99,,2013-02-04 02:11:00,
2013-02-03 19:21:00,33.0,3.0,-100.00,WSW,244,17.0,32.0,28,0.00,,,-99.99,,2013-02-04 02:21:00,
2013-02-03 19:31:00,32.0,4.0,-100.00,West,261,17.0,26.0,30,0.00,,,-99.99,,2013-02-04 02:31:00,
2013-02-03 19:41:00,32.0,4.0,-100.00,WSW,258,17.0,27.0,30,0.00,,,-99.99,,2013-02-04 02:41:00,
2013-02-03 19:52:00,32.0,4.0,-100.00,WSW,256,19.0,31.0,30,0.00,,,-99.99,,2013-02-04 02:52:00,
2013-02-03 20:02:00,32.0,5.0,-100.00,WSW,247,16.0,25.0,31,0.00,,,-99.99,,2013-02-04 03:02:00,
2013-02-03 20:11:00,32.0,5.0,-100.00,WSW,248,18.0,28.0,32,0.00,,,-99.99,,2013-02-04 03:11:00,
2013-02-03 20:21:00,31.0,5.0,-100.00,WSW,248,15.0,25.0,32,0.00,,,-99.99,,2013-02-04 03:21:00,
2013-02-03 20:32:00,31.0,6.0,-100.00,WSW,253,19.0,30.0,33,0.00,,,-99.99,,2013-02-04 03:32:00,
2013-02-03 20:41:00,31.0,5.0,-100.00,WSW,251,17.0,26.0,33,0.00,,,-99.99,,2013-02-04 03:41:00,
2013-02-03 20:51:00,31.0,5.0,-100.00,WSW,253,12.0,24.0,33,0.00,,,-99.99,,2013-02-04 03:51:00,
2013-02-03 21:01:00,30.0,5.0,-100.00,WSW,250,11.0,19.0,34,0.00,,,-99.99,,2013-02-04 04:01:00,
2013-02-03 21:11:00,30.0,5.0,-100.00,WSW,250,9.0,17.0,34,0.00,,,-99.99,,2013-02-04 04:11:00,
2013-02-03 21:21:00,30.0,6.0,-100.00,WSW,244,13.0,20.0,35,0.00,,,-99.99,,2013-02-04 04:21:00,
2013-02-03 21:32:00,30.0,5.0,-100.00,SW,234,14.0,27.0,35,0.00,,,-99.99,,2013-02-04 04:32:00,
2013-02-03 21:41:00,29.0,6.0,-100.00,SW,233,14.0,23.0,36,0.00,,,-99.99,,2013-02-04 04:41:00,
2013-02-03 21:52:00,29.0,6.0,-100.00,SW,227,15.0,23.0,37,0.00,,,-99.99,,2013-02-04 04:52:00,
2013-02-03 22:03:00,29.0,6.0,-100.00,SW,219,18.0,29.0,37,0.00,,,-99.99,,2013-02-04 05:03:00,
2013-02-03 22:11:00,29.0,6.0,-100.00,SW,217,19.0,30.0,36,0.00,,,-99.99,,2013-02-04 05:11:00,
2013-02-03 22:22:00,30.0,6.0,-100.00,SW,224,21.0,31.0,36,0.00,,,-99.99,,2013-02-04 05:22:00,
2013-02-03 22:33:00,29.0,6.0,-100.00,SW,224,22.0,32.0,36,0.00,,,-99.99,,2013-02-04 05:33:00,
2013-02-03 22:42:00,29.0,6.0,-100.00,SW,224,20.0,31.0,37,0.00,,,-99.99,,2013-02-04 05:42:00,
2013-02-03 22:52:00,29.0,6.0,-100.00,SW,226,20.0,30.0,37,0.00,,,-99.99,,2013-02-04 05:52:00,
2013-02-03 23:02:00,29.0,6.0,-100.00,WSW,239,17.0,27.0,36,0.00,,,-99.99,,2013-02-04 06:02:00,
2013-02-03 23:11:00,29.0,6.0,-100.00,WSW,239,16.0,27.0,36,0.00,,,-99.99,,2013-02-04 06:11:00,
2013-02-03 23:21:00,29.0,6.0,-100.00,WSW,240,14.0,26.0,35,0.00,,,-99.99,,2013-02-04 06:21:00,
2013-02-03 23:32:00,29.0,6.0,-100.00,WSW,239,14.0,27.0,36,0.00,,,-99.99,,2013-02-04 06:32:00,
2013-02-03 23:41:00,30.0,6.0,-100.00,WSW,240,16.0,30.0,36,0.00,,,-99.99,,2013-02-04 06:41:00,
2013-02-03 23:51:00,30.0,5.0,-100.00,WSW,240,19.0,35.0,35,0.00,,,-99.99,,2013-02-04 06:51:00,